createdAt,value
2019-06-08T00:02:23.002Z,21.44
2019-06-08T00:04:55.244Z,21.00
2019-06-08T00:07:27.244Z,23.46
2019-06-08T00:09:59.311Z,24.28
2019-06-08T00:12:31.318Z,23.22
2019-06-08T00:15:03.764Z,22.33
2019-06-08T00:17:38.751Z,21.65
2019-06-08T00:20:09.739Z,21.17
2019-06-08T00:22:41.860Z,20.78
2019-06-08T00:25:15.806Z,23.44
2019-06-08T00:27:48.017Z,24.24
2019-06-08T00:30:20.259Z,23.13
2019-06-08T00:32:52.288Z,22.22
2019-06-08T00:35:24.948Z,21.61
2019-06-08T00:38:00.127Z,21.14
2019-06-08T00:40:32.173Z,23.63
2019-06-08T00:43:04.082Z,24.41
2019-06-08T00:45:36.075Z,23.32
2019-06-08T00:48:08.068Z,22.43
2019-06-08T00:50:39.956Z,21.79
2019-06-08T00:53:11.957Z,21.30
2019-06-08T00:55:43.937Z,20.92
2019-06-08T00:58:15.895Z,23.58
2019-06-08T01:00:49.099Z,26.42
2019-06-08T01:03:21.653Z,26.04
2019-06-08T01:05:53.763Z,24.52
2019-06-08T01:08:25.731Z,23.45
2019-06-08T01:10:57.793Z,22.73
2019-06-08T01:13:29.771Z,22.19
2019-06-08T01:16:02.273Z,21.72
2019-06-08T01:18:34.311Z,21.31
2019-06-08T01:21:06.541Z,20.97
2019-06-08T01:23:38.428Z,23.58
2019-06-08T01:26:10.335Z,24.43
2019-06-08T01:28:42.226Z,23.35
2019-06-08T01:31:14.145Z,22.42
2019-06-08T01:33:46.188Z,21.76
2019-06-08T01:36:18.273Z,21.27
2019-06-08T01:38:50.301Z,23.72
2019-06-08T01:41:23.239Z,24.51
2019-06-08T01:43:55.400Z,23.41
2019-06-08T01:46:28.234Z,22.49
2019-06-08T01:49:00.269Z,21.85
2019-06-08T01:51:32.782Z,21.37
2019-06-08T01:54:05.762Z,23.89
2019-06-08T01:56:37.817Z,24.64
2019-06-08T01:59:09.787Z,23.50
2019-06-08T02:01:41.796Z,22.59
2019-06-08T02:04:13.764Z,21.91
2019-06-08T02:06:45.878Z,21.44
2019-06-08T02:09:17.797Z,21.03
2019-06-08T02:11:49.780Z,23.58
2019-06-08T02:14:21.745Z,24.46
2019-06-08T02:16:53.837Z,23.34
2019-06-08T02:19:26.542Z,22.39
2019-06-08T02:21:58.570Z,21.74
2019-06-08T02:25:03.792Z,21.13
2019-06-08T02:27:48.901Z,23.76
2019-06-08T02:30:22.711Z,24.43
2019-06-08T02:33:28.329Z,23.07
2019-06-08T02:36:13.444Z,22.16
2019-06-08T02:38:47.088Z,21.55
2019-06-08T02:41:51.417Z,21.03
2019-06-08T02:44:25.034Z,23.49
2019-06-08T02:46:58.587Z,24.30
2019-06-08T02:49:33.221Z,23.19
2019-06-08T02:52:07.255Z,22.29
2019-06-08T02:54:41.652Z,21.66
2019-06-08T02:57:15.559Z,21.17
2019-06-08T02:59:50.676Z,23.79
2019-06-08T03:02:29.638Z,24.50
2019-06-08T03:05:04.751Z,23.34
2019-06-08T03:07:42.341Z,22.42
2019-06-08T03:10:24.934Z,21.76
2019-06-08T03:13:12.069Z,21.23
2019-06-08T03:16:16.756Z,24.58
2019-06-08T03:18:50.333Z,25.02
2019-06-08T03:21:23.976Z,23.75
2019-06-08T03:24:09.342Z,22.73
2019-06-08T03:26:44.312Z,22.08
2019-06-08T03:29:17.865Z,21.58
2019-06-08T03:31:55.534Z,23.86
2019-06-08T03:34:23.796Z,24.64
2019-06-08T03:36:57.314Z,23.59
2019-06-08T03:39:29.436Z,22.71
2019-06-08T03:42:01.415Z,22.13
2019-06-08T03:44:34.237Z,24.39
2019-06-08T03:47:06.278Z,25.16
2019-06-08T03:49:50.709Z,24.07
2019-06-08T03:52:11.773Z,23.15
2019-06-08T03:54:45.236Z,22.54
2019-06-08T03:57:17.360Z,22.05
2019-06-08T03:59:49.454Z,24.54
2019-06-08T04:02:21.685Z,25.32
2019-06-08T04:04:54.064Z,24.20
2019-06-08T04:07:26.028Z,23.35
2019-06-08T04:09:59.186Z,22.71
2019-06-08T04:12:31.088Z,22.25
2019-06-08T04:15:03.695Z,24.79
2019-06-08T04:17:35.723Z,25.59
2019-06-08T04:20:11.641Z,24.48
2019-06-08T04:22:47.094Z,23.60
2019-06-08T04:25:20.460Z,23.02
2019-06-08T04:27:52.500Z,22.60
2019-06-08T04:30:24.593Z,25.01
2019-06-08T04:32:56.637Z,27.87
2019-06-08T04:35:28.683Z,27.54
2019-06-08T04:38:00.823Z,26.15
2019-06-08T04:40:32.954Z,25.18
2019-06-08T04:43:05.479Z,24.47
2019-06-08T04:45:40.920Z,23.95
2019-06-08T04:48:12.513Z,23.53
2019-06-08T04:50:45.420Z,23.19
2019-06-08T04:53:18.189Z,22.94
2019-06-08T04:55:50.172Z,25.70
2019-06-08T04:58:22.305Z,28.52
2019-06-08T05:00:54.391Z,28.12
2019-06-08T05:03:26.493Z,26.76
2019-06-08T05:05:59.571Z,25.73
2019-06-08T05:08:32.025Z,25.05
2019-06-08T05:11:04.393Z,24.52
2019-06-08T05:13:36.768Z,24.13
2019-06-08T05:16:08.800Z,23.79
2019-06-08T05:18:41.354Z,23.48
2019-06-08T05:21:13.681Z,26.21
2019-06-08T05:23:47.877Z,26.81
2019-06-08T05:26:20.713Z,25.73
2019-06-08T05:28:53.182Z,24.92
2019-06-08T05:31:25.400Z,24.36
2019-06-08T05:33:57.983Z,23.95
2019-06-08T05:36:30.381Z,23.63
2019-06-08T05:39:02.835Z,26.04
2019-06-08T05:41:36.152Z,26.76
2019-06-08T05:44:08.843Z,25.79
2019-06-08T05:46:41.756Z,25.03
2019-06-08T05:49:15.391Z,24.37
2019-06-08T05:51:47.852Z,23.96
2019-06-08T05:54:27.446Z,23.66
2019-06-08T05:57:02.778Z,25.90
2019-06-08T05:59:39.764Z,25.69
2019-06-08T06:02:15.030Z,24.78
2019-06-08T06:04:52.207Z,24.23
2019-06-08T06:07:26.511Z,23.80
2019-06-08T06:09:59.213Z,26.04
2019-06-08T06:12:31.794Z,26.28
2019-06-08T06:15:06.198Z,25.25
2019-06-08T06:17:38.424Z,24.48
2019-06-08T06:20:14.696Z,24.14
2019-06-08T06:22:49.505Z,25.74
2019-06-08T06:25:21.960Z,24.95
2019-06-08T06:27:54.480Z,24.00
2019-06-08T06:30:29.557Z,24.86
2019-06-08T06:33:01.545Z,25.30
2019-06-08T06:35:35.601Z,24.14
2019-06-08T06:38:08.746Z,24.06
2019-06-08T06:40:41.899Z,26.01
2019-06-08T06:43:13.927Z,25.19
2019-06-08T06:45:46.332Z,24.43
2019-06-08T06:48:18.308Z,24.20
2019-06-08T06:50:50.461Z,24.50
2019-06-08T06:53:22.392Z,25.93
2019-06-08T06:55:54.310Z,25.70
2019-06-08T06:58:26.357Z,24.51
2019-06-08T07:00:58.365Z,24.19
2019-06-08T07:03:30.346Z,24.28
2019-06-08T07:06:02.347Z,26.41
2019-06-08T07:08:36.365Z,26.25
2019-06-08T07:11:09.647Z,25.53
2019-06-08T07:13:41.636Z,24.97
2019-06-08T07:16:18.449Z,24.52
2019-06-08T07:18:48.210Z,24.06
2019-06-08T07:21:21.242Z,24.31
2019-06-08T07:23:54.540Z,26.62
2019-06-08T07:26:28.850Z,26.05
2019-06-08T07:29:00.917Z,25.16
2019-06-08T07:31:32.962Z,24.65
2019-06-08T07:34:05.091Z,24.40
2019-06-08T07:36:37.072Z,24.09
2019-06-08T07:39:09.581Z,25.73
2019-06-08T07:41:41.591Z,26.25
2019-06-08T07:44:13.557Z,25.36
2019-06-08T07:46:46.954Z,24.51
2019-06-08T07:49:21.329Z,24.06
2019-06-08T07:52:02.463Z,23.97
2019-06-08T07:54:28.352Z,25.56
2019-06-08T07:57:00.505Z,25.08
2019-06-08T07:59:32.568Z,24.62
2019-06-08T08:02:04.528Z,24.27
2019-06-08T08:04:36.501Z,24.11
2019-06-08T08:07:08.542Z,25.29
2019-06-08T08:09:40.482Z,26.52
2019-06-08T08:12:12.704Z,25.70
2019-06-08T08:14:44.744Z,24.77
2019-06-08T08:17:16.733Z,24.57
2019-06-08T08:19:48.975Z,24.41
2019-06-08T08:22:25.934Z,24.11
2019-06-08T08:24:57.927Z,24.10
2019-06-08T08:27:28.494Z,24.09
2019-06-08T08:30:01.839Z,23.96
2019-06-08T08:32:34.353Z,23.97
2019-06-08T08:35:08.785Z,23.95
2019-06-08T08:37:41.172Z,23.95
2019-06-08T08:40:13.304Z,23.96
2019-06-08T08:42:45.442Z,23.95
2019-06-08T08:45:18.321Z,23.96
2019-06-08T08:47:51.161Z,23.90
2019-06-08T08:50:24.344Z,23.88
2019-06-08T08:53:05.284Z,23.80
2019-06-08T08:55:37.981Z,23.75
2019-06-08T08:58:10.066Z,23.72
2019-06-08T09:00:41.992Z,23.75
2019-06-08T09:03:28.530Z,23.76
2019-06-08T09:05:48.298Z,23.76
2019-06-08T09:08:29.753Z,23.72
2019-06-08T09:11:03.868Z,23.70
2019-06-08T09:13:37.697Z,23.72
2019-06-08T09:16:09.884Z,23.69
2019-06-08T09:18:41.937Z,23.72
2019-06-08T09:21:13.967Z,23.70
2019-06-08T09:23:48.431Z,23.66
2019-06-08T09:26:19.733Z,23.56
2019-06-08T09:28:53.142Z,23.50
2019-06-08T09:31:28.071Z,23.49
2019-06-08T09:34:08.677Z,23.55
2019-06-08T09:36:32.936Z,23.55
2019-06-08T09:39:12.313Z,23.46
2019-06-08T09:41:40.698Z,23.39
2019-06-08T09:44:12.786Z,23.28
2019-06-08T09:46:44.839Z,23.18
2019-06-08T09:49:18.857Z,23.08
2019-06-08T09:51:51.183Z,23.01
2019-06-08T09:54:23.263Z,22.97
2019-06-08T09:56:55.776Z,22.94
2019-06-08T09:59:28.514Z,22.91
2019-06-08T10:02:07.421Z,22.86
2019-06-08T10:04:35.203Z,22.87
2019-06-08T10:07:08.905Z,22.81
2019-06-08T10:09:43.337Z,22.80
2019-06-08T10:12:18.038Z,22.78
2019-06-08T10:14:49.843Z,22.81
2019-06-08T10:17:21.945Z,22.84
2019-06-08T10:19:54.657Z,22.86
2019-06-08T10:22:28.270Z,22.87
2019-06-08T10:25:04.150Z,22.90
2019-06-08T10:27:34.165Z,22.93
2019-06-08T10:30:11.095Z,22.95
2019-06-08T10:32:43.126Z,22.99
2019-06-08T10:35:18.513Z,22.99
2019-06-08T10:37:51.183Z,22.90
2019-06-08T10:40:24.360Z,22.90
2019-06-08T10:42:59.798Z,22.83
2019-06-08T10:45:30.088Z,22.80
2019-06-08T10:48:03.228Z,22.81
2019-06-08T10:50:35.625Z,22.88
2019-06-08T10:53:10.532Z,22.97
2019-06-08T10:55:41.185Z,22.98
2019-06-08T10:58:13.179Z,22.97
2019-06-08T11:00:45.309Z,22.97
2019-06-08T11:03:17.505Z,22.90
2019-06-08T11:05:51.332Z,22.88
2019-06-08T11:08:23.047Z,22.84
2019-06-08T11:10:57.495Z,22.90
2019-06-08T11:13:28.828Z,22.91
2019-06-08T11:16:02.471Z,22.98
2019-06-08T11:18:34.391Z,23.05
2019-06-08T11:21:09.932Z,23.10
2019-06-08T11:23:41.656Z,23.15
2019-06-08T11:26:22.620Z,23.14
2019-06-08T11:28:50.827Z,23.07
2019-06-08T11:31:21.199Z,23.01
2019-06-08T11:33:53.227Z,22.90
2019-06-08T11:36:25.174Z,22.84
2019-06-08T11:38:59.201Z,22.81
2019-06-08T11:41:30.724Z,22.74
2019-06-08T11:44:03.868Z,22.63
2019-06-08T11:46:38.406Z,22.56
2019-06-08T11:49:13.454Z,22.43
2019-06-08T11:51:43.818Z,22.32
2019-06-08T11:54:29.487Z,22.20
2019-06-08T11:56:52.230Z,22.11
2019-06-08T11:59:25.658Z,22.01
2019-06-08T12:01:58.625Z,21.88
2019-06-08T12:04:30.660Z,21.78
2019-06-08T12:07:02.583Z,21.66
2019-06-08T12:09:34.608Z,21.54
2019-06-08T12:12:09.216Z,21.45
2019-06-08T12:14:40.572Z,21.36
2019-06-08T12:17:18.870Z,21.29
2019-06-08T12:19:49.533Z,21.17
2019-06-08T12:22:21.923Z,21.09
2019-06-08T12:24:53.986Z,21.01
2019-06-08T12:27:33.142Z,20.96
2019-06-08T12:29:59.536Z,20.92
2019-06-08T12:32:31.628Z,20.86
2019-06-08T12:35:05.110Z,20.86
2019-06-08T12:37:38.684Z,20.84
2019-06-08T12:40:13.284Z,20.86
2019-06-08T12:42:45.526Z,20.84
2019-06-08T12:45:19.916Z,20.87
2019-06-08T12:47:55.064Z,20.92
2019-06-08T12:50:28.815Z,21.00
2019-06-08T12:53:01.008Z,21.00
2019-06-08T12:55:33.000Z,21.04
2019-06-08T12:58:08.131Z,21.07
2019-06-08T13:00:40.342Z,21.10
2019-06-08T13:03:12.938Z,21.18
2019-06-08T13:05:45.116Z,21.25
2019-06-08T13:08:20.055Z,21.38
2019-06-08T13:10:50.664Z,21.58
2019-06-08T13:13:24.496Z,21.72
2019-06-08T13:15:58.035Z,21.92
2019-06-08T13:18:30.257Z,22.08
2019-06-08T13:21:15.567Z,22.29
2019-06-08T13:23:40.808Z,22.49
2019-06-08T13:26:10.892Z,22.63
2019-06-08T13:28:43.281Z,22.74
2019-06-08T13:31:18.250Z,22.84
2019-06-08T13:33:49.203Z,22.99
2019-06-08T13:36:26.093Z,23.41
2019-06-08T13:38:54.825Z,24.06
2019-06-08T13:41:29.646Z,24.78
2019-06-08T13:44:00.319Z,25.40
2019-06-08T13:46:32.431Z,26.03
2019-06-08T13:49:04.478Z,26.62
2019-06-08T13:51:38.432Z,27.17
2019-06-08T13:54:10.774Z,27.89
2019-06-08T13:56:42.892Z,28.64
2019-06-08T13:59:19.217Z,29.22
2019-06-08T14:01:51.238Z,29.75
2019-06-08T14:04:23.834Z,30.09
2019-06-08T14:06:58.121Z,30.22
2019-06-08T14:09:31.832Z,30.43
2019-06-08T14:12:03.854Z,30.38
2019-06-08T14:14:39.690Z,30.41
2019-06-08T14:17:09.407Z,30.73
2019-06-08T14:19:41.364Z,31.05
2019-06-08T14:22:13.376Z,31.32
2019-06-08T14:24:47.788Z,31.39
2019-06-08T14:27:19.360Z,31.29
2019-06-08T14:29:51.479Z,30.94
2019-06-08T14:32:23.876Z,30.71
2019-06-08T14:34:58.246Z,30.28
2019-06-08T14:37:30.558Z,29.96
2019-06-08T14:40:02.700Z,29.65
2019-06-08T14:42:35.401Z,29.31
2019-06-08T14:45:10.873Z,29.01
2019-06-08T14:47:42.454Z,28.64
2019-06-08T14:50:14.820Z,28.35
2019-06-08T14:52:47.926Z,28.09
2019-06-08T14:55:21.745Z,27.82
2019-06-08T14:57:54.376Z,27.53
2019-06-08T15:00:27.527Z,27.27
2019-06-08T15:03:00.286Z,27.17
2019-06-08T15:05:32.805Z,27.05
2019-06-08T15:08:04.873Z,26.97
2019-06-08T15:10:38.474Z,26.90
2019-06-08T15:13:10.705Z,26.81
2019-06-08T15:15:42.753Z,26.70
2019-06-08T15:18:14.576Z,26.63
2019-06-08T15:20:48.101Z,26.69
2019-06-08T15:23:22.868Z,26.96
2019-06-08T15:25:53.937Z,27.28
2019-06-08T15:28:29.283Z,27.67
2019-06-08T15:31:00.071Z,28.09
2019-06-08T15:33:33.629Z,28.59
2019-06-08T15:36:05.760Z,28.98
2019-06-08T15:38:38.152Z,29.31
2019-06-08T15:41:10.223Z,29.85
2019-06-08T15:43:42.190Z,30.23
2019-06-08T15:46:14.253Z,30.58
2019-06-08T15:48:48.514Z,30.94
2019-06-08T15:51:19.982Z,31.19
2019-06-08T15:53:52.005Z,31.39
2019-06-08T15:56:40.620Z,31.65
2019-06-08T15:58:58.799Z,31.73
2019-06-08T16:01:31.557Z,31.93
2019-06-08T16:04:04.244Z,32.04
2019-06-08T16:06:36.291Z,32.26
2019-06-08T16:09:09.719Z,32.47
2019-06-08T16:11:41.676Z,32.72
2019-06-08T16:14:13.554Z,32.85
2019-06-08T16:16:45.701Z,33.06
2019-06-08T16:19:17.634Z,33.23
2019-06-08T16:21:49.560Z,33.37
2019-06-08T16:24:21.570Z,33.48
2019-06-08T16:26:53.816Z,33.64
2019-06-08T16:29:26.794Z,33.73
2019-06-08T16:31:58.860Z,33.67
2019-06-08T16:34:31.364Z,33.79
2019-06-08T16:37:03.442Z,33.99
2019-06-08T16:39:35.367Z,34.11
2019-06-08T16:42:07.328Z,34.31
2019-06-08T16:44:39.364Z,34.48
2019-06-08T16:47:12.387Z,34.69
2019-06-08T16:49:44.267Z,34.82
2019-06-08T16:52:17.280Z,34.96
2019-06-08T16:54:49.402Z,35.06
2019-06-08T16:57:21.376Z,35.19
2019-06-08T16:59:53.330Z,35.44
2019-06-08T17:02:26.538Z,35.44
2019-06-08T17:04:59.609Z,35.46
2019-06-08T17:07:32.151Z,35.46
2019-06-08T17:10:06.567Z,35.36
2019-06-08T17:12:39.120Z,35.28
2019-06-08T17:15:13.255Z,35.19
2019-06-08T17:17:45.269Z,35.02
2019-06-08T17:20:17.489Z,34.73
2019-06-08T17:22:50.455Z,34.35
2019-06-08T17:25:22.394Z,33.96
2019-06-08T17:27:54.497Z,33.59
2019-06-08T17:30:26.390Z,33.36
2019-06-08T17:32:58.485Z,32.85
2019-06-08T17:35:31.397Z,32.37
2019-06-08T17:38:03.551Z,31.93
2019-06-08T17:40:35.860Z,31.45
2019-06-08T17:43:07.934Z,30.94
2019-06-08T17:45:41.114Z,30.41
2019-06-08T17:48:13.243Z,29.93
2019-06-08T17:50:45.204Z,29.38
2019-06-08T17:53:17.089Z,28.93
2019-06-08T17:55:49.178Z,28.47
2019-06-08T17:58:21.727Z,28.02
2019-06-08T18:00:54.007Z,27.57
2019-06-08T18:03:27.920Z,27.16
2019-06-08T18:06:00.028Z,26.82
2019-06-08T18:08:32.024Z,26.44
2019-06-08T18:11:03.972Z,26.12
2019-06-08T18:13:38.998Z,25.81
2019-06-08T18:16:09.580Z,25.52
2019-06-08T18:18:42.291Z,25.22
2019-06-08T18:21:17.565Z,24.91
2019-06-08T18:23:48.981Z,24.61
2019-06-08T18:26:21.152Z,24.36
2019-06-08T18:28:55.066Z,24.09
2019-06-08T18:31:27.639Z,23.83
2019-06-08T18:34:02.102Z,23.58
2019-06-08T18:36:35.625Z,23.34
2019-06-08T18:39:08.205Z,23.11
2019-06-08T18:41:41.183Z,22.88
2019-06-08T18:44:14.063Z,22.66
2019-06-08T18:46:48.084Z,22.44
2019-06-08T18:49:19.653Z,22.20
2019-06-08T18:51:53.761Z,21.99
2019-06-08T18:54:27.853Z,21.81
2019-06-08T18:56:59.226Z,21.57
2019-06-08T18:59:31.202Z,21.34
2019-06-08T19:02:03.284Z,21.15
2019-06-08T19:04:37.433Z,20.94
2019-06-08T19:07:08.967Z,20.73
2019-06-08T19:09:42.623Z,20.55
2019-06-08T19:12:17.188Z,20.35
2019-06-08T19:14:51.974Z,20.17
2019-06-08T19:17:22.454Z,20.00
2019-06-08T19:19:54.366Z,19.78
2019-06-08T19:22:30.062Z,19.60
2019-06-08T19:25:00.214Z,19.40
2019-06-08T19:27:32.478Z,19.19
2019-06-08T19:30:06.226Z,19.03
2019-06-08T19:32:40.394Z,18.86
2019-06-08T19:35:12.301Z,18.68
2019-06-08T19:37:44.209Z,18.53
2019-06-08T19:40:17.645Z,18.37
2019-06-08T19:42:57.178Z,18.19
2019-06-08T19:45:23.806Z,17.99
2019-06-08T19:47:57.799Z,17.82
2019-06-08T19:50:29.566Z,17.69
2019-06-08T19:53:01.553Z,17.53
2019-06-08T19:55:33.910Z,17.39
2019-06-08T19:58:08.557Z,17.27
2019-06-08T20:00:40.604Z,17.10
2019-06-08T20:03:14.132Z,16.97
2019-06-08T20:05:50.122Z,16.84
2019-06-08T20:08:19.988Z,16.69
2019-06-08T20:10:52.186Z,16.56
2019-06-08T20:13:24.250Z,16.43
2019-06-08T20:15:59.603Z,16.31
2019-06-08T20:18:30.261Z,16.18
2019-06-08T20:21:02.246Z,16.08
2019-06-08T20:23:34.552Z,15.95
2019-06-08T20:26:08.385Z,15.86
2019-06-08T20:28:42.053Z,15.74
2019-06-08T20:31:15.229Z,15.63
2019-06-08T20:33:50.235Z,15.50
2019-06-08T20:36:20.891Z,15.43
2019-06-08T20:38:52.984Z,15.30
2019-06-08T20:41:27.597Z,15.22
2019-06-08T20:43:58.728Z,15.09
2019-06-08T20:46:30.667Z,15.02
2019-06-08T20:49:02.551Z,14.91
2019-06-08T20:51:34.487Z,14.83
2019-06-08T20:54:07.950Z,14.75
2019-06-08T20:56:40.076Z,14.67
2019-06-08T20:59:24.266Z,14.59
2019-06-08T21:01:48.353Z,14.49
2019-06-08T21:04:19.162Z,14.38
2019-06-08T21:06:52.822Z,14.30
2019-06-08T21:09:24.837Z,14.20
2019-06-08T21:11:58.749Z,17.38
2019-06-08T21:14:30.483Z,18.65
2019-06-08T21:17:03.041Z,17.65
2019-06-08T21:19:34.923Z,16.84
2019-06-08T21:22:08.204Z,16.31
2019-06-08T21:24:40.444Z,15.94
2019-06-08T21:27:12.335Z,15.67
2019-06-08T21:29:49.059Z,15.49
2019-06-08T21:32:20.976Z,15.26
2019-06-08T21:34:52.659Z,15.06
2019-06-08T21:37:27.902Z,14.88
2019-06-08T21:40:03.757Z,14.71
2019-06-08T21:42:33.855Z,14.57
2019-06-08T21:45:09.752Z,14.38
2019-06-08T21:47:42.159Z,14.23
2019-06-08T21:50:18.641Z,17.20
2019-06-08T21:52:54.698Z,18.43
2019-06-08T21:55:33.570Z,17.35
2019-06-08T21:58:07.865Z,16.52
2019-06-08T22:00:47.054Z,16.01
2019-06-08T22:03:19.004Z,15.60
2019-06-08T22:05:51.754Z,15.32
2019-06-08T22:08:23.683Z,15.06
2019-06-08T22:10:58.962Z,14.85
2019-06-08T22:13:29.500Z,14.65
2019-06-08T22:16:02.246Z,14.42
2019-06-08T22:18:35.095Z,14.24
2019-06-08T22:21:08.080Z,14.06
2019-06-08T22:24:07.995Z,13.86
2019-06-08T22:26:39.461Z,17.73
2019-06-08T22:29:12.417Z,18.65
2019-06-08T22:31:44.275Z,17.42
2019-06-08T22:34:17.471Z,16.49
2019-06-08T22:36:49.701Z,15.86
2019-06-08T22:39:22.945Z,15.39
2019-06-08T22:41:56.077Z,15.03
2019-06-08T22:44:28.532Z,14.74
2019-06-08T22:47:01.968Z,14.47
2019-06-08T22:49:34.027Z,14.23
2019-06-08T22:52:08.210Z,14.00
2019-06-08T22:54:39.494Z,13.80
2019-06-08T22:57:11.392Z,17.01
2019-06-08T22:59:43.344Z,20.39
2019-06-08T23:02:15.284Z,20.11
2019-06-08T23:05:01.332Z,18.55
2019-06-08T23:07:32.920Z,17.37
2019-06-08T23:10:22.833Z,16.63
2019-06-08T23:13:04.373Z,16.04
2019-06-08T23:15:38.055Z,15.58
2019-06-08T23:18:12.954Z,15.19
2019-06-08T23:20:48.082Z,14.86
2019-06-08T23:23:19.967Z,14.54
2019-06-08T23:25:52.150Z,14.24
2019-06-08T23:28:28.275Z,13.94
2019-06-08T23:31:10.707Z,13.70
2019-06-08T23:33:34.802Z,13.43
2019-06-08T23:36:43.481Z,16.59
2019-06-08T23:38:40.713Z,20.18
2019-06-08T23:41:12.815Z,19.81
2019-06-08T23:43:44.780Z,18.20
2019-06-08T23:46:18.142Z,17.06
2019-06-08T23:48:50.170Z,16.26
2019-06-08T23:51:22.233Z,15.71
2019-06-08T23:53:54.115Z,15.26
2019-06-08T23:56:27.746Z,14.85
2019-06-08T23:59:00.359Z,14.49
